Time;durP1;ratioP1;P1;durP2;ratioP2;P2;SDS_P1;SDS_P2;PMS_P1;PMS_P2;Temp;Humidity;BMP_temperature;BMP_pressure;BME280_temperature;BME280_humidity;BME280_pressure;Samples;Min_cycle;Max_cycle;Signal;HPM_P1;HPM_P2
2022/05/15 00:00:37;;;;;;;7.53;6.73;;;23.10;99.90;;;;;;5093683;28;20189;-69
2022/05/15 00:03:11;;;;;;;7.77;6.13;;;22.80;99.90;;;;;;5093529;28;20174;-68
2022/05/15 00:05:39;;;;;;;8.47;6.23;;;22.80;99.90;;;;;;5093246;28;20179;-68
2022/05/15 00:08:08;;;;;;;9.37;5.27;;;22.70;99.90;;;;;;5093389;28;20203;-69
2022/05/15 00:10:36;;;;;;;8.10;6.47;;;22.60;99.90;;;;;;5093260;28;20171;-69
2022/05/15 00:13:06;;;;;;;7.97;5.63;;;22.50;99.90;;;;;;5092015;28;20178;-69
2022/05/15 00:15:34;;;;;;;5.70;4.47;;;22.80;99.90;;;;;;5092564;28;20186;-69
2022/05/15 00:18:03;;;;;;;8.83;5.27;;;22.80;99.90;;;;;;5092955;28;20203;-69
2022/05/15 00:20:31;;;;;;;5.53;4.87;;;23.00;99.90;;;;;;5091993;28;20539;-70
2022/05/15 00:22:59;;;;;;;6.80;4.53;;;23.10;99.90;;;;;;5097101;28;20179;-71
2022/05/15 00:25:27;;;;;;;7.00;4.27;;;23.30;99.90;;;;;;5097211;28;20178;-70
2022/05/15 00:27:56;;;;;;;7.37;5.13;;;23.20;99.90;;;;;;5097256;28;20171;-70
2022/05/15 00:30:23;;;;;;;6.87;5.23;;;23.30;99.90;;;;;;5097213;28;20258;-71
2022/05/15 00:32:51;;;;;;;5.97;4.27;;;23.50;99.90;;;;;;5097259;28;20179;-70
2022/05/15 00:35:20;;;;;;;5.63;4.00;;;23.60;99.90;;;;;;5096616;28;20651;-70
2022/05/15 00:37:48;;;;;;;10.70;4.77;;;23.70;99.90;;;;;;5096945;28;20270;-70
2022/05/15 00:40:18;;;;;;;5.20;3.87;;;23.70;99.90;;;;;;5096574;28;20172;-70
2022/05/15 00:42:47;;;;;;;4.17;3.53;;;24.00;99.90;;;;;;5097025;28;20180;-70
2022/05/15 00:45:17;;;;;;;3.57;3.03;;;24.20;99.90;;;;;;5096536;28;20182;-69
2022/05/15 00:47:45;;;;;;;3.37;2.90;;;24.20;99.90;;;;;;5096688;28;20195;-69
2022/05/15 00:50:17;;;;;;;4.13;3.00;;;24.10;99.90;;;;;;5096712;28;20186;-70
2022/05/15 00:52:48;;;;;;;4.40;2.90;;;24.10;99.90;;;;;;5097021;28;20167;-69
2022/05/15 00:55:31;;;;;;;3.67;2.87;;;24.10;99.90;;;;;;5096260;28;20163;-69
2022/05/15 00:58:09;;;;;;;4.10;3.07;;;24.10;99.90;;;;;;5096524;28;20226;-69
2022/05/15 01:00:37;;;;;;;5.10;3.33;;;23.80;99.90;;;;;;5096356;28;20658;-70
2022/05/15 01:03:13;;;;;;;3.83;3.43;;;23.90;99.90;;;;;;5096826;28;20202;-70
2022/05/15 01:05:49;;;;;;;3.13;2.00;;;24.00;99.90;;;;;;5096286;28;20175;-70
2022/05/15 01:08:17;;;;;;;2.60;2.03;;;24.10;99.90;;;;;;5093041;28;20183;-69
2022/05/15 01:10:52;;;;;;;2.20;2.00;;;24.00;99.90;;;;;;5094424;28;20194;-69
2022/05/15 01:13:23;;;;;;;3.27;2.40;;;24.10;99.90;;;;;;5095148;28;20182;-69
2022/05/15 01:15:50;;;;;;;2.57;2.13;;;24.00;99.90;;;;;;5094671;28;20284;-69
2022/05/15 01:18:26;;;;;;;3.03;1.90;;;23.90;99.90;;;;;;5095060;28;20262;-68
2022/05/15 01:20:59;;;;;;;3.73;1.90;;;24.00;99.90;;;;;;5094893;28;20224;-69
2022/05/15 01:23:29;;;;;;;6.30;1.90;;;23.90;99.90;;;;;;5094992;28;20181;-68
2022/05/15 01:25:58;;;;;;;1.93;1.80;;;23.90;99.90;;;;;;5094174;28;20314;-69
2022/05/15 01:28:27;;;;;;;2.77;2.00;;;24.60;99.90;;;;;;5094853;28;20262;-69
2022/05/15 01:30:59;;;;;;;4.37;1.90;;;26.00;99.90;;;;;;5094734;28;20228;-69
2022/05/15 01:33:26;;;;;;;2.03;1.70;;;26.40;99.90;;;;;;5093910;28;20175;-69
2022/05/15 01:35:54;;;;;;;2.70;2.30;;;26.50;99.90;;;;;;5094298;28;20298;-70
2022/05/15 01:38:21;;;;;;;2.90;2.00;;;26.50;99.90;;;;;;5094915;28;20175;-70
2022/05/15 01:40:52;;;;;;;4.43;1.90;;;25.90;99.90;;;;;;5094694;28;20168;-69
2022/05/15 01:43:19;;;;;;;2.67;2.23;;;26.00;99.90;;;;;;5094661;28;20647;-68
2022/05/15 01:45:47;;;;;;;6.40;2.43;;;26.10;99.90;;;;;;5094445;28;20266;-69
2022/05/15 01:48:14;;;;;;;5.10;2.23;;;26.60;99.90;;;;;;5093282;28;20609;-69
2022/05/15 01:50:42;;;;;;;2.87;2.20;;;26.80;99.90;;;;;;5094640;28;20653;-69
2022/05/15 01:53:09;;;;;;;3.37;2.43;;;26.10;99.90;;;;;;5094343;28;20179;-69
2022/05/15 01:55:36;;;;;;;4.27;2.73;;;26.10;99.90;;;;;;5094209;28;20183;-70
2022/05/15 01:58:04;;;;;;;3.73;2.17;;;26.00;99.90;;;;;;5094195;28;20712;-69
2022/05/15 02:00:31;;;;;;;4.17;2.43;;;25.70;99.90;;;;;;5094222;28;20222;-70
2022/05/15 02:02:58;;;;;;;2.33;2.07;;;25.70;99.90;;;;;;5094234;28;20262;-69
2022/05/15 02:05:26;;;;;;;4.20;2.20;;;25.70;99.90;;;;;;5093797;28;20179;-69
2022/05/15 02:07:54;;;;;;;3.60;2.13;;;25.50;99.90;;;;;;5094133;28;20186;-69
2022/05/15 02:10:21;;;;;;;4.97;2.30;;;25.30;99.90;;;;;;5093891;28;20186;-70
2022/05/15 02:12:49;;;;;;;5.57;3.13;;;25.20;99.90;;;;;;5093787;28;20222;-69
2022/05/15 02:15:16;;;;;;;4.97;2.43;;;25.30;99.90;;;;;;5092838;28;20171;-69
2022/05/15 02:17:44;;;;;;;4.80;2.03;;;25.30;99.90;;;;;;5093749;28;20222;-68
2022/05/15 02:20:12;;;;;;;3.93;2.33;;;25.20;99.90;;;;;;5093669;28;20228;-69
2022/05/15 02:22:41;;;;;;;2.53;1.77;;;25.00;99.90;;;;;;5093653;28;20187;-70
2022/05/15 02:25:11;;;;;;;5.13;2.77;;;24.90;99.90;;;;;;5093846;28;20254;-70
2022/05/15 02:27:39;;;;;;;5.03;2.50;;;24.90;99.90;;;;;;5093653;28;20228;-69
2022/05/15 02:30:09;;;;;;;3.40;1.47;;;24.80;99.90;;;;;;5093508;28;20658;-71
2022/05/15 02:32:36;;;;;;;6.03;1.60;;;24.90;99.90;;;;;;5093614;28;20689;-71
2022/05/15 02:35:04;;;;;;;2.27;1.67;;;24.70;99.90;;;;;;5093682;28;20180;-70
2022/05/15 02:37:32;;;;;;;3.73;1.80;;;24.50;99.90;;;;;;5093209;28;20214;-71
2022/05/15 02:39:59;;;;;;;3.27;1.83;;;24.60;99.90;;;;;;5093431;28;20226;-70
2022/05/15 02:42:27;;;;;;;3.70;2.00;;;24.60;99.90;;;;;;5093151;28;20269;-69
2022/05/15 02:44:54;;;;;;;4.80;1.70;;;24.60;99.90;;;;;;5091036;28;20216;-70
2022/05/15 02:47:21;;;;;;;3.07;2.27;;;24.50;99.90;;;;;;5093265;28;20560;-70
2022/05/15 02:52:34;;;;;;;2.50;1.83;;;24.50;99.90;;;;;;5093262;28;20187;-71
2022/05/15 02:55:02;;;;;;;4.20;2.27;;;24.40;99.90;;;;;;5092812;28;20185;-67
2022/05/15 02:57:29;;;;;;;3.80;1.80;;;24.40;99.90;;;;;;5092065;28;20223;-70
2022/05/15 02:59:57;;;;;;;2.87;1.87;;;24.40;99.90;;;;;;5092720;28;20202;-70
2022/05/15 03:02:24;;;;;;;2.77;1.80;;;24.40;99.90;;;;;;5092982;28;20183;-70
2022/05/15 03:04:52;;;;;;;5.57;2.07;;;24.60;99.90;;;;;;5092790;28;20190;-71
2022/05/15 03:07:19;;;;;;;5.13;2.10;;;24.60;99.90;;;;;;5092967;28;20574;-70
2022/05/15 03:09:47;;;;;;;4.43;2.20;;;24.80;99.90;;;;;;5092640;28;20171;-69
2022/05/15 03:12:14;;;;;;;5.70;2.17;;;24.80;99.90;;;;;;5091993;28;20203;-69
2022/05/15 03:14:42;;;;;;;4.13;1.77;;;24.80;99.90;;;;;;5092768;28;20187;-70
2022/05/15 03:17:09;;;;;;;3.87;1.97;;;24.80;99.90;;;;;;5092506;28;20210;-71
2022/05/15 03:19:37;;;;;;;1.90;1.60;;;24.70;99.90;;;;;;5092771;28;20262;-71
2022/05/15 03:22:04;;;;;;;3.40;2.00;;;24.60;99.90;;;;;;5092290;28;20700;-71
2022/05/15 03:24:31;;;;;;;4.80;2.00;;;24.80;99.90;;;;;;5092582;28;20516;-72
2022/05/15 03:26:59;;;;;;;6.90;2.27;;;25.00;99.90;;;;;;5092410;28;20210;-70
2022/05/15 03:29:27;;;;;;;5.87;2.00;;;25.20;99.90;;;;;;5092452;28;20262;-70
2022/05/15 03:31:54;;;;;;;18.10;2.90;;;25.30;99.90;;;;;;5092159;28;20263;-70
2022/05/15 03:34:22;;;;;;;8.50;1.83;;;25.40;99.90;;;;;;5092244;28;20182;-71
2022/05/15 03:36:51;;;;;;;4.20;1.83;;;25.40;99.90;;;;;;5091913;28;20260;-71
2022/05/15 03:39:21;;;;;;;2.80;2.07;;;25.20;99.90;;;;;;5092187;28;20233;-70
2022/05/15 03:41:49;;;;;;;4.23;1.97;;;25.00;99.90;;;;;;5092123;28;20666;-71
2022/05/15 03:44:17;;;;;;;2.90;2.10;;;24.80;99.90;;;;;;5092156;28;20680;-71
2022/05/15 03:46:46;;;;;;;3.20;1.77;;;24.70;99.90;;;;;;5092241;28;20183;-71
2022/05/15 03:49:13;;;;;;;7.63;2.30;;;24.60;99.90;;;;;;5091917;28;20535;-71
2022/05/15 03:51:42;;;;;;;4.13;2.00;;;24.70;99.90;;;;;;5092214;28;20183;-72
2022/05/15 03:54:09;;;;;;;5.90;2.40;;;24.50;99.90;;;;;;5091823;28;20194;-71
2022/05/15 03:56:50;;;;;;;3.93;2.60;;;24.60;99.90;;;;;;5091372;28;20266;-71
2022/05/15 03:59:22;;;;;;;5.63;2.60;;;24.60;99.90;;;;;;5092176;28;20204;-71
2022/05/15 04:01:49;;;;;;;4.47;2.50;;;24.60;99.90;;;;;;5090466;28;20187;-71
2022/05/15 04:04:17;;;;;;;4.83;2.30;;;24.50;99.90;;;;;;5091857;28;20179;-69
2022/05/15 04:06:45;;;;;;;2.67;1.90;;;24.40;99.90;;;;;;5091851;28;20721;-71
2022/05/15 04:09:13;;;;;;;3.80;2.33;;;24.50;99.90;;;;;;5092074;28;20178;-71
2022/05/15 04:11:40;;;;;;;6.70;2.10;;;24.50;99.90;;;;;;5091908;28;20239;-71
2022/05/15 04:14:08;;;;;;;5.63;2.53;;;24.50;99.90;;;;;;5091386;28;20190;-72
2022/05/15 04:16:36;;;;;;;5.47;2.57;;;24.40;99.90;;;;;;5091760;28;20250;-71
2022/05/15 04:19:04;;;;;;;3.87;2.50;;;24.40;99.90;;;;;;5091512;28;20704;-72
2022/05/15 04:21:36;;;;;;;4.23;2.50;;;24.30;99.90;;;;;;5091805;28;20665;-70
2022/05/15 04:24:05;;;;;;;3.60;2.43;;;24.30;99.90;;;;;;5091664;28;20228;-71
2022/05/15 04:26:33;;;;;;;4.93;2.50;;;24.30;99.90;;;;;;5071507;28;20299;-71
2022/05/15 04:29:01;;;;;;;4.00;2.10;;;24.20;99.90;;;;;;5071529;28;20176;-72
2022/05/15 04:31:28;;;;;;;4.30;2.17;;;24.20;99.90;;;;;;5071587;28;20187;-71
2022/05/15 04:33:56;;;;;;;7.10;2.60;;;24.20;99.90;;;;;;5086243;28;20187;-72
2022/05/15 04:36:24;;;;;;;8.00;2.53;;;24.10;99.90;;;;;;5091412;28;20630;-71
2022/05/15 04:38:51;;;;;;;5.67;2.50;;;24.00;99.90;;;;;;5091859;28;20178;-72
2022/05/15 04:41:18;;;;;;;3.87;2.10;;;23.90;99.90;;;;;;5091482;28;20179;-72
2022/05/15 04:43:47;;;;;;;5.30;2.30;;;23.90;99.90;;;;;;5091456;28;20629;-71
2022/05/15 04:46:14;;;;;;;4.50;2.33;;;23.70;99.90;;;;;;5090139;28;20187;-71
2022/05/15 04:48:43;;;;;;;3.20;2.37;;;23.60;99.90;;;;;;5090777;28;20191;-70
2022/05/15 04:51:11;;;;;;;6.20;2.57;;;23.50;99.90;;;;;;5090946;28;20175;-71
2022/05/15 04:53:38;;;;;;;3.60;2.77;;;23.30;99.90;;;;;;5091365;28;20216;-72
2022/05/15 04:56:06;;;;;;;7.50;2.87;;;23.30;99.90;;;;;;5091044;28;20211;-71
2022/05/15 04:58:33;;;;;;;5.00;2.90;;;23.20;99.90;;;;;;5091571;28;20202;-71
2022/05/15 05:01:00;;;;;;;5.13;2.70;;;23.10;99.90;;;;;;5091340;28;20301;-71
2022/05/15 05:03:28;;;;;;;6.27;2.93;;;23.10;99.90;;;;;;5091204;28;20187;-72
2022/05/15 05:05:55;;;;;;;3.97;2.30;;;23.10;99.90;;;;;;5089797;28;20191;-69
2022/05/15 05:08:22;;;;;;;5.83;2.30;;;23.00;99.90;;;;;;5092639;28;20176;-71
2022/05/15 05:10:49;;;;;;;4.23;2.57;;;22.90;99.90;;;;;;5094698;28;20183;-71
2022/05/15 05:13:17;;;;;;;5.53;2.27;;;22.90;99.90;;;;;;5094996;28;20183;-71
2022/05/15 05:15:44;;;;;;;7.00;3.07;;;22.90;99.90;;;;;;5095115;28;20562;-70
2022/05/15 05:18:16;;;;;;;6.83;2.63;;;22.90;99.90;;;;;;5094043;28;20191;-70
2022/05/15 05:20:44;;;;;;;8.43;3.10;;;22.80;99.90;;;;;;5092879;28;20187;-71
2022/05/15 05:23:12;;;;;;;5.40;3.43;;;22.80;99.90;;;;;;5094301;28;20191;-70
2022/05/15 05:25:40;;;;;;;6.60;3.33;;;22.80;99.90;;;;;;5094822;28;20182;-70
2022/05/15 05:28:07;;;;;;;4.80;3.00;;;22.80;99.90;;;;;;5094919;28;20186;-70
2022/05/15 05:30:37;;;;;;;5.30;3.17;;;22.70;99.90;;;;;;5094763;28;20258;-70
2022/05/15 05:33:05;;;;;;;8.77;4.10;;;22.70;99.90;;;;;;5094621;28;20257;-70
2022/05/15 05:35:34;;;;;;;8.27;4.47;;;22.70;99.90;;;;;;5094348;28;20179;-69
2022/05/15 05:38:02;;;;;;;6.93;4.53;;;22.70;99.90;;;;;;5094184;28;20648;-70
2022/05/15 05:40:29;;;;;;;8.90;4.63;;;22.60;99.90;;;;;;5094287;28;20604;-70
2022/05/15 05:42:56;;;;;;;6.27;3.93;;;22.50;99.90;;;;;;5094633;28;20182;-69
2022/05/15 05:45:24;;;;;;;4.27;3.53;;;22.40;99.90;;;;;;5094654;28;20237;-69
2022/05/15 05:47:52;;;;;;;4.33;3.37;;;22.50;99.90;;;;;;5093356;28;20295;-69
2022/05/15 05:50:21;;;;;;;6.60;3.37;;;22.40;99.90;;;;;;5094132;28;20179;-70
2022/05/15 05:52:49;;;;;;;6.23;3.10;;;22.40;99.90;;;;;;5093836;28;20191;-70
2022/05/15 05:55:19;;;;;;;3.77;3.03;;;22.40;99.90;;;;;;5094471;28;20191;-70
2022/05/15 05:57:47;;;;;;;5.97;3.23;;;22.40;99.90;;;;;;5093882;28;20226;-70
2022/05/15 06:00:28;;;;;;;4.60;2.77;;;22.30;99.90;;;;;;5094020;28;20305;-70
2022/05/15 06:04:39;;;;;;;7.57;3.60;;;22.20;99.90;;;;;;5094256;28;20183;-69
2022/05/15 06:05:43;;;;;;;7.13;3.40;;;22.30;99.90;;;;;;5094050;28;20183;-70
2022/05/15 06:08:11;;;;;;;8.13;4.00;;;22.20;99.90;;;;;;5093545;28;20182;-69
2022/05/15 06:10:39;;;;;;;7.33;3.70;;;22.10;99.90;;;;;;5093889;28;20195;-70
2022/05/15 06:13:09;;;;;;;5.97;3.30;;;22.10;99.90;;;;;;5092397;28;20187;-69
2022/05/15 06:15:37;;;;;;;6.27;3.23;;;22.10;99.90;;;;;;5096997;28;20176;-69
2022/05/15 06:18:06;;;;;;;6.40;3.60;;;22.00;99.90;;;;;;5108718;28;20187;-69
2022/05/15 06:20:34;;;;;;;3.97;3.00;;;22.00;99.90;;;;;;5101541;28;20641;-70
2022/05/15 06:23:01;;;;;;;5.43;3.87;;;21.90;99.90;;;;;;5094213;28;20185;-71
2022/05/15 06:25:29;;;;;;;5.73;3.50;;;21.90;99.90;;;;;;5093975;28;20168;-70
2022/05/15 06:27:56;;;;;;;4.47;3.40;;;21.90;99.90;;;;;;5093885;28;20204;-70
2022/05/15 06:30:23;;;;;;;4.20;3.20;;;21.90;99.90;;;;;;5093709;28;20194;-70
2022/05/15 06:32:51;;;;;;;6.87;3.10;;;21.80;99.90;;;;;;5093926;28;20254;-70
2022/05/15 06:35:18;;;;;;;4.37;3.07;;;21.70;99.90;;;;;;5093315;28;20262;-68
2022/05/15 06:37:46;;;;;;;10.20;3.83;;;21.60;99.90;;;;;;5093568;28;20306;-70
2022/05/15 06:40:15;;;;;;;5.63;3.20;;;21.60;99.90;;;;;;5093241;28;20692;-68
2022/05/15 06:42:43;;;;;;;5.50;4.03;;;21.50;99.90;;;;;;5093294;28;20619;-69
2022/05/15 06:45:12;;;;;;;5.17;3.57;;;21.50;99.90;;;;;;5093180;28;20230;-69
2022/05/15 06:47:39;;;;;;;3.80;3.10;;;21.50;99.90;;;;;;5093189;28;20298;-67
2022/05/15 06:50:08;;;;;;;9.37;4.00;;;21.50;99.90;;;;;;5093284;28;20170;-69
2022/05/15 06:52:37;;;;;;;10.17;5.67;;;21.50;99.90;;;;;;5093225;28;20190;-69
2022/05/15 06:55:07;;;;;;;13.30;6.33;;;21.50;99.90;;;;;;5091851;28;20264;-69
2022/05/15 06:57:36;;;;;;;7.10;4.83;;;21.50;99.90;;;;;;5092974;28;20229;-69
2022/05/15 07:00:13;;;;;;;5.87;3.77;;;21.50;99.90;;;;;;5093118;28;20180;-70
2022/05/15 07:02:42;;;;;;;5.60;3.83;;;21.50;99.90;;;;;;5093258;28;20342;-70
2022/05/15 07:05:11;;;;;;;6.30;4.63;;;21.40;99.90;;;;;;5092680;28;20201;-69
2022/05/15 07:07:40;;;;;;;5.73;4.30;;;21.40;99.90;;;;;;5093031;28;20182;-70
2022/05/15 07:10:08;;;;;;;8.87;4.63;;;21.40;99.90;;;;;;5092515;28;20274;-69
2022/05/15 07:12:36;;;;;;;7.87;5.00;;;21.30;99.90;;;;;;5092865;28;20179;-69
2022/05/15 07:15:05;;;;;;;5.87;4.63;;;21.30;99.90;;;;;;5092887;28;20176;-69
2022/05/15 07:17:33;;;;;;;7.13;5.47;;;21.20;99.90;;;;;;5091015;28;20668;-70
2022/05/15 07:20:01;;;;;;;5.70;3.93;;;21.20;99.90;;;;;;5092693;28;20183;-69
2022/05/15 07:22:28;;;;;;;7.20;3.67;;;21.20;99.90;;;;;;5092714;28;20179;-70
2022/05/15 07:24:56;;;;;;;4.83;3.60;;;21.10;99.90;;;;;;5092713;28;20178;-70
2022/05/15 07:27:24;;;;;;;12.00;4.20;;;21.00;99.90;;;;;;5092420;28;20228;-70
2022/05/15 07:29:51;;;;;;;8.13;3.90;;;21.00;99.90;;;;;;5092455;28;20195;-71
2022/05/15 07:32:19;;;;;;;6.67;4.47;;;20.90;99.90;;;;;;5092099;28;20217;-71
2022/05/15 07:34:47;;;;;;;7.77;3.97;;;20.90;99.90;;;;;;5091126;28;20179;-71
2022/05/15 07:37:16;;;;;;;8.33;3.97;;;20.80;99.90;;;;;;5092109;28;20708;-71
2022/05/15 07:39:44;;;;;;;6.53;3.93;;;20.80;99.90;;;;;;5090863;28;20183;-70
2022/05/15 07:42:13;;;;;;;6.63;4.77;;;20.80;99.90;;;;;;5092482;28;20182;-70
2022/05/15 07:44:41;;;;;;;8.03;4.50;;;20.80;99.90;;;;;;5092065;28;20695;-70
2022/05/15 07:47:09;;;;;;;6.43;4.03;;;20.80;99.90;;;;;;5091360;28;20268;-70
2022/05/15 07:49:38;;;;;;;5.50;4.57;;;20.70;99.90;;;;;;5092115;28;20293;-71
2022/05/15 07:52:07;;;;;;;6.83;4.13;;;20.70;99.90;;;;;;5091203;28;20574;-69
2022/05/15 07:54:35;;;;;;;8.03;4.00;;;20.60;99.90;;;;;;5106332;28;20218;-69
2022/05/15 07:57:05;;;;;;;6.97;4.97;;;20.60;99.90;;;;;;5108337;28;20329;-69
2022/05/15 07:59:33;;;;;;;8.90;4.80;;;20.70;99.90;;;;;;5118000;28;20152;-71
2022/05/15 08:02:06;;;;;;;11.87;5.90;;;20.70;99.90;;;;;;5099568;28;20331;-70
2022/05/15 08:10:08;;;;;;;13.33;8.10;;;20.60;99.90;;;;;;5092165;28;20175;-70
2022/05/15 08:12:36;;;;;;;10.20;6.70;;;20.60;99.90;;;;;;5092083;28;20185;-69
2022/05/15 08:15:05;;;;;;;11.00;7.33;;;20.60;99.90;;;;;;5092366;28;20671;-70
2022/05/15 08:17:33;;;;;;;12.17;6.43;;;20.60;99.90;;;;;;5091790;28;20224;-70
2022/05/15 08:25:33;;;;;;;12.70;8.63;;;20.40;99.90;;;;;;5091888;28;20308;-70
2022/05/15 08:28:00;;;;;;;11.33;8.40;;;20.40;99.90;;;;;;5090701;28;20172;-69
2022/05/15 08:30:28;;;;;;;10.20;8.07;;;20.40;99.90;;;;;;5091268;28;20189;-70
2022/05/15 08:32:56;;;;;;;10.70;7.40;;;20.40;99.90;;;;;;5091619;28;20171;-71
2022/05/15 08:35:24;;;;;;;10.40;7.03;;;20.40;99.90;;;;;;5091679;28;20258;-69
2022/05/15 08:37:51;;;;;;;10.53;6.53;;;20.40;99.90;;;;;;5091757;28;20207;-70
2022/05/15 08:40:30;;;;;;;10.77;6.83;;;20.40;99.90;;;;;;5091184;28;20195;-69
2022/05/15 08:43:00;;;;;;;9.10;7.07;;;20.30;99.90;;;;;;5092176;28;20179;-68
2022/05/15 08:45:32;;;;;;;17.23;7.80;;;20.30;99.90;;;;;;5095492;28;20170;-67
2022/05/15 08:48:11;;;;;;;13.37;6.83;;;20.30;99.90;;;;;;5092621;28;20192;-69
2022/05/15 08:50:49;;;;;;;11.30;6.27;;;20.20;99.90;;;;;;5095340;28;20183;-69
2022/05/15 08:53:23;;;;;;;9.53;6.67;;;20.20;99.90;;;;;;5095270;28;20276;-69
2022/05/15 08:55:55;;;;;;;13.40;8.33;;;20.20;99.90;;;;;;5095409;28;20171;-69
2022/05/15 08:58:40;;;;;;;11.60;7.93;;;20.20;99.90;;;;;;5094031;28;20228;-68
2022/05/15 09:01:11;;;;;;;10.33;7.47;;;20.10;99.90;;;;;;5095462;28;20221;-68
2022/05/15 09:03:39;;;;;;;12.90;8.27;;;20.10;99.90;;;;;;5094397;28;20181;-68
2022/05/15 09:06:16;;;;;;;10.43;8.17;;;20.10;99.90;;;;;;5095486;28;20176;-68
2022/05/15 09:09:02;;;;;;;10.00;6.90;;;20.00;99.90;;;;;;5095422;28;20196;-69
2022/05/15 09:11:52;;;;;;;10.93;6.93;;;19.90;99.90;;;;;;5095463;28;20180;-69
2022/05/15 09:14:32;;;;;;;10.10;7.40;;;19.90;99.90;;;;;;5095247;28;20184;-69
2022/05/15 09:17:13;;;;;;;9.07;7.07;;;19.80;99.90;;;;;;5095169;28;20234;-69
2022/05/15 09:19:41;;;;;;;16.03;8.37;;;19.70;99.90;;;;;;5094970;28;20514;-69
2022/05/15 09:22:12;;;;;;;7.80;6.27;;;19.60;99.90;;;;;;5095196;28;20709;-69
2022/05/15 09:25:01;;;;;;;13.17;7.20;;;19.60;99.90;;;;;;5094968;28;20280;-69
2022/05/15 09:27:29;;;;;;;10.30;7.80;;;19.50;99.90;;;;;;5095051;28;20274;-69
2022/05/15 09:30:00;;;;;;;11.03;7.20;;;19.50;99.90;;;;;;5095055;28;20192;-68
2022/05/15 09:32:44;;;;;;;10.97;7.20;;;19.40;99.90;;;;;;5094706;28;20654;-69
2022/05/15 09:35:33;;;;;;;11.50;7.33;;;19.40;99.90;;;;;;5094871;28;20192;-70
2022/05/15 09:43:57;;;;;;;9.30;7.50;;;19.50;99.90;;;;;;5085451;28;20675;-68
2022/05/15 09:46:28;;;;;;;10.57;7.20;;;19.40;99.90;;;;;;5094692;28;20167;-69
2022/05/15 09:48:58;;;;;;;11.60;7.07;;;19.40;99.90;;;;;;5094417;28;20206;-70
2022/05/15 09:51:29;;;;;;;9.67;6.73;;;19.30;99.90;;;;;;5095554;28;20170;-70
2022/05/15 09:53:57;;;;;;;13.90;7.20;;;19.20;99.90;;;;;;5094151;28;20209;-71
2022/05/15 09:56:31;;;;;;;9.27;6.93;;;19.20;99.90;;;;;;5095074;28;20312;-70
2022/05/15 09:59:11;;;;;;;7.63;6.63;;;19.10;99.90;;;;;;5095409;28;20221;-70
2022/05/15 10:01:41;;;;;;;9.83;7.50;;;19.00;99.90;;;;;;5095455;28;20175;-69
2022/05/15 10:04:24;;;;;;;10.23;6.67;;;18.90;99.90;;;;;;5095339;28;20185;-69
2022/05/15 10:07:02;;;;;;;11.33;7.93;;;18.80;99.90;;;;;;5095611;28;20175;-68
2022/05/15 10:09:36;;;;;;;11.27;6.97;;;18.80;99.90;;;;;;5095296;28;20183;-69
2022/05/15 10:12:21;;;;;;;10.90;7.00;;;18.80;99.90;;;;;;5094659;28;20175;-70
2022/05/15 10:14:55;;;;;;;8.13;6.43;;;18.80;99.90;;;;;;5094195;28;20182;-69
2022/05/15 10:17:25;;;;;;;9.53;6.30;;;18.70;99.90;;;;;;5095088;28;20211;-69
2022/05/15 10:20:18;;;;;;;8.53;6.33;;;18.70;99.90;;;;;;5095275;28;20175;-68
2022/05/15 10:23:08;;;;;;;9.97;6.13;;;18.50;99.90;;;;;;5095399;28;20180;-69
2022/05/15 10:25:48;;;;;;;10.90;6.10;;;18.50;99.90;;;;;;5094271;28;20183;-70
2022/05/15 10:28:52;;;;;;;9.90;6.73;;;18.40;99.90;;;;;;5095492;28;20581;-70
2022/05/15 10:31:30;;;;;;;7.50;6.43;;;18.30;99.90;;;;;;5093911;28;20715;-69
2022/05/15 10:34:03;;;;;;;11.90;6.60;;;18.20;99.90;;;;;;5094857;28;20188;-69
2022/05/15 10:36:54;;;;;;;10.67;6.47;;;18.20;99.90;;;;;;5093065;28;20207;-69
2022/05/15 10:39:44;;;;;;;12.90;7.57;;;18.10;99.90;;;;;;5088771;28;20637;-69
2022/05/15 10:42:39;;;;;;;12.50;7.77;;;18.10;99.90;;;;;;5094134;28;20190;-69
2022/05/15 10:45:20;;;;;;;10.17;7.93;;;18.20;99.90;;;;;;5094891;28;20163;-69
2022/05/15 10:48:08;;;;;;;7.97;6.73;;;18.30;99.90;;;;;;5094746;28;20276;-69
2022/05/15 10:50:55;;;;;;;9.87;7.17;;;18.20;99.90;;;;;;5094635;28;20203;-70
2022/05/15 11:00:07;;;;;;;11.07;7.80;;;18.20;99.90;;;;;;5093122;28;20671;-70
2022/05/15 11:02:56;;;;;;;9.53;7.33;;;18.10;99.90;;;;;;5092582;28;20183;-68
2022/05/15 11:05:28;;;;;;;11.63;7.63;;;18.00;99.90;;;;;;5093383;28;20202;-69
2022/05/15 11:08:05;;;;;;;9.60;7.20;;;17.80;99.90;;;;;;5092249;28;20184;-68
2022/05/15 11:10:57;;;;;;;12.10;7.17;;;17.70;99.90;;;;;;5094379;28;20674;-71
2022/05/15 11:13:49;;;;;;;10.53;8.10;;;17.70;99.90;;;;;;5094126;28;20172;-68
2022/05/15 11:16:38;;;;;;;11.90;8.90;;;17.60;99.90;;;;;;5093815;28;20206;-68
2022/05/15 11:19:46;;;;;;;14.67;9.40;;;17.70;99.90;;;;;;5094220;28;20205;-68
2022/05/15 11:22:32;;;;;;;10.70;8.30;;;17.70;99.90;;;;;;5094340;28;20183;-68
2022/05/15 11:25:11;;;;;;;14.97;7.33;;;17.80;99.90;;;;;;5094590;28;20563;-69
2022/05/15 11:28:03;;;;;;;10.27;7.70;;;17.70;99.90;;;;;;5095293;28;20187;-69
2022/05/15 11:30:38;;;;;;;13.07;8.00;;;17.60;99.90;;;;;;5093605;28;20239;-69
2022/05/15 11:33:44;;;;;;;12.30;6.80;;;17.50;99.90;;;;;;5091110;28;20258;-70
2022/05/15 11:36:22;;;;;;;9.23;6.40;;;17.40;99.90;;;;;;5091732;28;20238;-68
2022/05/15 11:39:22;;;;;;;8.97;7.00;;;17.40;99.90;;;;;;5091640;28;20281;-68
2022/05/15 11:42:08;;;;;;;9.70;5.93;;;17.30;99.90;;;;;;5093818;28;20258;-69
2022/05/15 11:44:44;;;;;;;10.90;6.90;;;17.20;99.90;;;;;;5093136;28;20660;-69
2022/05/15 11:47:15;;;;;;;10.90;6.60;;;17.10;99.90;;;;;;5093631;28;20258;-69
2022/05/15 11:50:03;;;;;;;7.90;6.47;;;17.10;99.90;;;;;;5093695;28;20174;-69
2022/05/15 11:53:05;;;;;;;9.63;6.53;;;17.00;99.90;;;;;;5093078;28;20174;-68
2022/05/15 11:55:49;;;;;;;10.87;6.57;;;16.90;99.90;;;;;;5041465;28;20208;-69
2022/05/15 11:58:49;;;;;;;8.40;6.27;;;16.90;99.90;;;;;;5073466;28;20302;-68
2022/05/15 12:01:32;;;;;;;10.77;6.70;;;17.00;99.90;;;;;;5057279;28;20245;-69
2022/05/15 12:04:07;;;;;;;8.53;6.00;;;16.90;99.90;;;;;;5072041;28;20176;-69
2022/05/15 12:06:49;;;;;;;8.37;6.17;;;16.80;99.90;;;;;;5073465;28;20174;-69
2022/05/15 12:09:20;;;;;;;8.77;5.50;;;16.80;99.90;;;;;;5073102;28;20184;-69
2022/05/15 12:11:51;;;;;;;8.27;5.00;;;16.70;99.90;;;;;;5073795;28;20283;-69
2022/05/15 12:14:28;;;;;;;5.57;4.63;;;16.60;99.90;;;;;;5073271;28;20172;-69
2022/05/15 12:17:17;;;;;;;7.17;4.40;;;16.60;99.90;;;;;;5072860;28;20227;-69
2022/05/15 12:19:48;;;;;;;8.60;4.30;;;16.50;99.90;;;;;;5073475;28;20649;-69
2022/05/15 12:22:17;;;;;;;4.83;4.03;;;16.50;99.90;;;;;;5073155;28;20176;-69
2022/05/15 12:24:48;;;;;;;4.67;4.10;;;16.50;99.90;;;;;;5073031;28;20176;-69
2022/05/15 12:27:26;;;;;;;7.77;4.30;;;16.40;99.90;;;;;;5073239;28;20259;-68
2022/05/15 12:30:10;;;;;;;5.03;4.20;;;16.40;99.90;;;;;;5071672;28;20179;-67
2022/05/15 12:32:39;;;;;;;6.67;4.30;;;16.30;99.90;;;;;;5091512;28;20281;-69
2022/05/15 12:35:30;;;;;;;8.47;3.90;;;16.30;99.90;;;;;;5092031;28;20176;-68
2022/05/15 12:38:13;;;;;;;5.73;3.97;;;16.40;99.90;;;;;;5083361;28;20234;-68
2022/05/15 12:41:01;;;;;;;5.80;4.20;;;16.40;99.90;;;;;;5092198;28;20751;-68
2022/05/15 12:43:34;;;;;;;7.83;4.50;;;16.50;99.90;;;;;;5085116;28;20248;-66
2022/05/15 12:46:02;;;;;;;7.60;4.67;;;16.40;99.90;;;;;;5093087;28;20232;-67
2022/05/15 12:48:36;;;;;;;6.30;4.10;;;16.30;99.90;;;;;;5091998;28;20755;-68
2022/05/15 12:51:09;;;;;;;4.80;3.77;;;16.20;99.90;;;;;;5092302;28;20175;-67
2022/05/15 12:53:46;;;;;;;5.97;3.73;;;16.10;99.90;;;;;;5089540;28;20187;-69
2022/05/15 12:56:19;;;;;;;5.33;3.43;;;16.10;99.90;;;;;;5091712;28;20215;-69
2022/05/15 12:58:54;;;;;;;7.77;4.00;;;16.10;99.90;;;;;;5091891;28;20620;-67
2022/05/15 13:01:27;;;;;;;5.60;3.90;;;16.00;99.90;;;;;;5091553;28;20176;-68
2022/05/15 13:03:57;;;;;;;5.47;3.70;;;15.90;99.90;;;;;;5092145;28;20183;-68
2022/05/15 13:06:36;;;;;;;5.63;3.60;;;15.90;99.90;;;;;;5092000;28;20183;-69
2022/05/15 13:09:10;;;;;;;3.10;2.80;;;15.80;99.90;;;;;;5090981;28;20247;-69
2022/05/15 13:11:41;;;;;;;3.90;3.40;;;15.70;99.90;;;;;;5092423;28;20197;-69
2022/05/15 13:14:32;;;;;;;8.77;4.73;;;15.70;99.90;;;;;;5092300;28;20187;-69
2022/05/15 13:17:00;;;;;;;5.30;3.93;;;15.70;99.90;;;;;;5092389;28;20211;-68
2022/05/15 13:19:41;;;;;;;6.33;4.00;;;15.60;99.90;;;;;;5091561;28;20184;-68
2022/05/15 13:22:15;;;;;;;10.43;4.50;;;15.60;99.90;;;;;;5092024;28;20183;-68
2022/05/15 13:24:44;;;;;;;7.60;4.30;;;15.60;99.90;;;;;;5092335;28;20187;-67
2022/05/15 13:27:13;;;;;;;5.67;4.33;;;15.60;99.90;;;;;;5092236;28;20540;-67
2022/05/15 13:29:41;;;;;;;7.07;4.43;;;15.50;99.90;;;;;;5094338;28;20312;-68
2022/05/15 13:32:12;;;;;;;6.60;4.37;;;15.40;99.90;;;;;;5095870;28;20187;-68
2022/05/15 13:34:41;;;;;;;6.30;4.00;;;15.50;99.90;;;;;;5095344;28;20557;-67
2022/05/15 13:37:33;;;;;;;4.40;3.40;;;15.40;99.90;;;;;;5094190;28;20319;-67